createdAt,value
2018-07-04T00:00:44.595Z,22.28
2018-07-04T00:03:24.233Z,22.25
2018-07-04T00:06:03.855Z,22.28
2018-07-04T00:08:43.643Z,22.26
2018-07-04T00:11:23.124Z,22.24
2018-07-04T00:14:02.643Z,22.22
2018-07-04T00:16:42.245Z,22.17
2018-07-04T00:19:21.939Z,22.17
2018-07-04T00:22:01.674Z,22.16
2018-07-04T00:24:41.408Z,22.17
2018-07-04T00:27:21.203Z,22.16
2018-07-04T00:30:00.873Z,22.13
2018-07-04T00:32:40.533Z,22.09
2018-07-04T00:35:20.272Z,21.97
2018-07-04T00:37:59.927Z,21.84
2018-07-04T00:40:39.504Z,21.78
2018-07-04T00:43:19.252Z,21.76
2018-07-04T00:45:58.960Z,21.76
2018-07-04T00:48:38.691Z,21.73
2018-07-04T00:51:18.328Z,21.71
2018-07-04T00:53:57.988Z,21.68
2018-07-04T00:56:37.615Z,21.59
2018-07-04T00:59:17.152Z,21.54
2018-07-04T01:01:56.894Z,21.54
2018-07-04T01:04:36.503Z,21.52
2018-07-04T01:07:16.029Z,21.49
2018-07-04T01:09:55.721Z,21.50
2018-07-04T01:12:35.401Z,21.46
2018-07-04T01:15:15.000Z,21.47
2018-07-04T01:17:54.727Z,21.45
2018-07-04T01:21:39.499Z,21.45
2018-07-04T01:24:19.054Z,21.36
2018-07-04T01:26:58.701Z,21.38
2018-07-04T01:29:38.370Z,21.37
2018-07-04T01:32:18.056Z,21.38
2018-07-04T01:34:57.639Z,21.39
2018-07-04T01:37:37.115Z,21.40
2018-07-04T01:40:17.175Z,21.41
2018-07-04T01:42:56.850Z,21.39
2018-07-04T01:45:36.533Z,21.33
2018-07-04T01:48:16.384Z,21.19
2018-07-04T01:50:56.032Z,21.08
2018-07-04T01:53:35.729Z,21.09
2018-07-04T01:56:15.500Z,21.15
2018-07-04T01:58:55.241Z,21.18
2018-07-04T02:04:07.897Z,21.09
2018-07-04T02:06:47.604Z,20.99
2018-07-04T02:09:27.160Z,20.94
2018-07-04T02:12:06.786Z,20.86
2018-07-04T02:14:46.341Z,20.80
2018-07-04T02:17:25.954Z,20.69
2018-07-04T02:20:05.610Z,20.62
2018-07-04T02:22:45.250Z,20.63
2018-07-04T02:25:24.922Z,20.58
2018-07-04T02:28:04.640Z,20.49
2018-07-04T02:30:44.212Z,20.41
2018-07-04T02:33:23.896Z,20.42
2018-07-04T02:36:03.473Z,20.45
2018-07-04T02:38:43.068Z,20.53
2018-07-04T02:41:22.609Z,20.53
2018-07-04T02:44:02.214Z,20.55
2018-07-04T02:46:41.902Z,20.58
2018-07-04T02:49:22.221Z,20.61
2018-07-04T02:52:01.683Z,20.61
2018-07-04T02:54:41.463Z,20.57
2018-07-04T02:57:21.020Z,20.46
2018-07-04T03:00:00.682Z,20.44
2018-07-04T03:02:40.314Z,20.38
2018-07-04T03:05:19.976Z,20.28
2018-07-04T03:07:59.739Z,20.19
2018-07-04T03:10:39.112Z,20.11
2018-07-04T03:13:18.762Z,20.06
2018-07-04T03:15:58.357Z,20.00
2018-07-04T03:18:38.010Z,19.95
2018-07-04T03:21:17.556Z,19.92
2018-07-04T03:23:57.088Z,19.94
2018-07-04T03:26:36.702Z,19.91
2018-07-04T03:29:16.203Z,19.82
2018-07-04T03:31:55.840Z,19.71
2018-07-04T03:34:35.480Z,19.72
2018-07-04T03:37:15.270Z,19.72
2018-07-04T03:39:55.993Z,19.63
2018-07-04T03:42:35.648Z,19.58
2018-07-04T03:45:15.424Z,19.48
2018-07-04T03:47:55.113Z,19.43
2018-07-04T03:50:34.848Z,19.36
2018-07-04T03:53:14.515Z,19.41
2018-07-04T03:55:53.989Z,19.43
2018-07-04T03:58:33.795Z,19.44
2018-07-04T04:01:13.508Z,19.39
2018-07-04T04:03:53.151Z,19.34
2018-07-04T04:06:32.803Z,19.31
2018-07-04T04:09:12.555Z,19.28
2018-07-04T04:11:52.207Z,19.23
2018-07-04T04:14:31.848Z,19.16
2018-07-04T04:17:11.485Z,19.26
2018-07-04T04:19:51.129Z,19.35
2018-07-04T04:22:30.813Z,19.37
2018-07-04T04:25:10.532Z,19.38
2018-07-04T04:27:50.199Z,19.39
2018-07-04T04:30:29.915Z,19.43
2018-07-04T04:33:09.500Z,19.45
2018-07-04T04:35:49.216Z,19.47
2018-07-04T04:38:28.947Z,19.50
2018-07-04T04:41:08.456Z,19.50
2018-07-04T04:43:47.967Z,19.41
2018-07-04T04:46:27.511Z,19.34
2018-07-04T04:49:07.206Z,19.29
2018-07-04T04:51:46.913Z,19.40
2018-07-04T04:54:26.520Z,19.47
2018-07-04T04:57:06.224Z,19.50
2018-07-04T04:59:45.971Z,19.47
2018-07-04T05:02:25.636Z,19.51
2018-07-04T05:05:05.345Z,19.39
2018-07-04T05:07:44.968Z,19.42
2018-07-04T05:10:24.529Z,19.43
2018-07-04T05:13:04.531Z,19.49
2018-07-04T05:15:44.324Z,19.46
2018-07-04T05:18:23.842Z,19.15
2018-07-04T05:21:03.575Z,19.55
2018-07-04T05:23:43.351Z,19.60
2018-07-04T05:26:23.083Z,19.67
2018-07-04T05:29:02.709Z,19.74
2018-07-04T05:31:42.492Z,19.79
2018-07-04T05:34:21.976Z,19.86
2018-07-04T05:37:01.521Z,19.87
2018-07-04T05:39:41.044Z,19.80
2018-07-04T05:42:20.682Z,19.82
2018-07-04T05:45:00.404Z,19.91
2018-07-04T05:47:40.290Z,19.96
2018-07-04T05:50:19.989Z,19.94
2018-07-04T05:52:59.717Z,19.95
2018-07-04T05:55:39.260Z,19.97
2018-07-04T05:58:18.996Z,20.06
2018-07-04T06:00:58.629Z,20.13
2018-07-04T06:03:38.266Z,20.20
2018-07-04T06:06:17.891Z,20.25
2018-07-04T06:08:57.641Z,20.32
2018-07-04T06:11:37.299Z,20.42
2018-07-04T06:14:17.105Z,20.48
2018-07-04T06:16:56.669Z,20.46
2018-07-04T06:19:36.360Z,20.50
2018-07-04T06:22:16.021Z,20.56
2018-07-04T06:24:55.688Z,20.69
2018-07-04T06:27:35.428Z,20.83
2018-07-04T06:30:15.152Z,20.92
2018-07-04T06:32:54.632Z,21.00
2018-07-04T06:35:34.332Z,21.05
2018-07-04T06:38:01.589Z,21.08
2018-07-04T06:42:56.049Z,21.16
2018-07-04T06:45:23.279Z,21.20
2018-07-04T06:47:50.979Z,21.23
2018-07-04T06:50:18.250Z,21.30
2018-07-04T06:52:45.441Z,21.36
2018-07-04T06:55:12.627Z,21.42
2018-07-04T06:57:39.862Z,21.46
2018-07-04T07:00:07.053Z,21.51
2018-07-04T07:02:34.253Z,21.56
2018-07-04T07:05:13.809Z,21.60
2018-07-04T07:07:53.572Z,21.63
2018-07-04T07:10:33.185Z,21.70
2018-07-04T07:13:13.055Z,21.73
2018-07-04T07:15:52.712Z,21.74
2018-07-04T07:18:32.230Z,21.72
2018-07-04T07:21:11.777Z,21.71
2018-07-04T07:23:51.288Z,21.75
2018-07-04T07:26:31.133Z,21.78
2018-07-04T07:29:10.842Z,21.84
2018-07-04T07:31:50.569Z,21.93
2018-07-04T07:34:30.401Z,22.01
2018-07-04T07:37:11.089Z,22.08
2018-07-04T07:39:50.631Z,22.14
2018-07-04T07:42:30.264Z,22.16
2018-07-04T07:45:09.982Z,22.16
2018-07-04T07:47:49.742Z,22.15
2018-07-04T07:50:29.444Z,22.13
2018-07-04T07:53:09.122Z,22.11
2018-07-04T07:55:48.827Z,22.13
2018-07-04T07:58:28.445Z,22.12
2018-07-04T08:01:08.134Z,22.13
2018-07-04T08:03:50.120Z,22.26
2018-07-04T08:06:29.786Z,22.26
2018-07-04T08:09:09.559Z,22.25
2018-07-04T08:11:49.384Z,22.24
2018-07-04T08:14:29.084Z,22.22
2018-07-04T08:17:09.800Z,22.26
2018-07-04T08:19:49.517Z,22.36
2018-07-04T08:22:29.233Z,22.48
2018-07-04T08:25:08.891Z,22.79
2018-07-04T08:27:48.505Z,23.08
2018-07-04T08:30:28.310Z,23.17
2018-07-04T08:33:08.022Z,23.26
2018-07-04T08:35:47.801Z,23.29
2018-07-04T08:38:27.465Z,23.29
2018-07-04T08:41:06.993Z,23.39
2018-07-04T08:43:46.568Z,23.38
2018-07-04T08:46:26.886Z,23.43
2018-07-04T08:49:06.373Z,23.63
2018-07-04T08:51:46.590Z,23.87
2018-07-04T08:54:26.097Z,23.94
2018-07-04T08:57:05.808Z,23.96
2018-07-04T08:59:45.571Z,24.00
2018-07-04T09:02:25.260Z,24.06
2018-07-04T09:05:05.026Z,24.07
2018-07-04T09:07:44.789Z,24.15
2018-07-04T09:10:24.792Z,24.20
2018-07-04T09:13:04.526Z,24.22
2018-07-04T09:15:44.271Z,24.19
2018-07-04T09:18:24.002Z,24.20
2018-07-04T09:21:03.374Z,24.07
2018-07-04T09:23:43.009Z,23.85
2018-07-04T09:26:22.716Z,23.69
2018-07-04T09:29:02.203Z,23.58
2018-07-04T09:31:41.889Z,23.55
2018-07-04T09:34:21.595Z,23.56
2018-07-04T09:37:01.313Z,23.56
2018-07-04T09:39:41.124Z,23.58
2018-07-04T09:42:20.741Z,23.64
2018-07-04T09:45:00.444Z,23.69
2018-07-04T09:47:40.071Z,23.82
2018-07-04T09:50:19.669Z,23.91
2018-07-04T09:52:59.382Z,24.02
2018-07-04T09:55:39.091Z,24.10
2018-07-04T09:58:18.637Z,24.10
2018-07-04T10:01:03.773Z,24.15
2018-07-04T10:03:43.331Z,24.19
2018-07-04T10:06:22.984Z,24.23
2018-07-04T10:09:02.766Z,24.26
2018-07-04T10:11:42.584Z,24.28
2018-07-04T10:14:22.274Z,24.29
2018-07-04T10:17:02.000Z,24.27
2018-07-04T10:19:41.675Z,24.27
2018-07-04T10:22:21.289Z,24.26
2018-07-04T10:25:00.928Z,24.26
2018-07-04T10:27:41.322Z,24.23
2018-07-04T10:30:20.831Z,24.23
2018-07-04T10:33:00.475Z,24.22
2018-07-04T10:35:40.140Z,24.22
2018-07-04T10:38:19.889Z,24.22
2018-07-04T10:40:59.515Z,24.28
2018-07-04T10:43:38.996Z,24.31
2018-07-04T10:46:18.920Z,24.29
2018-07-04T10:48:58.553Z,24.30
2018-07-04T10:51:38.392Z,24.34
2018-07-04T10:54:17.920Z,24.40
2018-07-04T10:56:57.442Z,24.43
2018-07-04T10:59:36.916Z,24.51
2018-07-04T11:02:16.618Z,24.56
2018-07-04T11:04:56.202Z,24.65
2018-07-04T11:07:35.896Z,24.70
2018-07-04T11:10:15.512Z,24.80
2018-07-04T11:12:55.273Z,24.84
2018-07-04T11:15:34.919Z,24.86
2018-07-04T11:18:14.569Z,24.90
2018-07-04T11:20:54.336Z,24.86
2018-07-04T11:23:33.992Z,24.88
2018-07-04T11:26:13.628Z,24.99
2018-07-04T11:28:53.380Z,25.14
2018-07-04T11:31:32.904Z,25.22
2018-07-04T11:34:12.501Z,25.25
2018-07-04T11:36:52.067Z,25.19
2018-07-04T11:39:31.799Z,25.13
2018-07-04T11:42:11.517Z,25.15
2018-07-04T11:44:51.213Z,25.26
2018-07-04T11:47:18.441Z,25.39
2018-07-04T11:49:45.644Z,25.58
2018-07-04T11:52:12.844Z,25.72
2018-07-04T11:54:40.129Z,25.90
2018-07-04T11:57:07.374Z,26.22
2018-07-04T11:59:34.532Z,26.41
2018-07-04T12:02:01.761Z,26.32
2018-07-04T12:04:41.284Z,26.12
2018-07-04T12:07:09.708Z,26.02
2018-07-04T12:09:39.050Z,26.06
2018-07-04T12:12:06.287Z,26.59
2018-07-04T12:14:33.651Z,26.87
2018-07-04T12:17:01.040Z,26.98
2018-07-04T12:19:28.449Z,27.16
2018-07-04T12:21:55.656Z,27.10
2018-07-04T12:24:22.857Z,26.88
2018-07-04T12:26:50.129Z,26.82
2018-07-04T12:29:17.346Z,26.82
2018-07-04T12:31:44.604Z,26.81
2018-07-04T12:34:11.786Z,26.87
2018-07-04T12:36:38.993Z,26.81
2018-07-04T12:39:06.233Z,26.72
2018-07-04T12:41:33.487Z,26.77
2018-07-04T12:44:00.708Z,26.80
2018-07-04T12:46:28.244Z,26.71
2018-07-04T12:48:59.588Z,26.57
2018-07-04T12:51:26.800Z,26.51
2018-07-04T12:53:58.158Z,26.47
2018-07-04T12:56:37.880Z,26.45
2018-07-04T12:59:17.541Z,26.44
2018-07-04T13:01:57.081Z,26.42
2018-07-04T13:04:36.690Z,26.38
2018-07-04T13:07:16.321Z,26.31
2018-07-04T13:09:56.027Z,26.26
2018-07-04T13:12:35.751Z,26.25
2018-07-04T13:15:15.423Z,26.26
2018-07-04T13:17:55.155Z,26.27
2018-07-04T13:20:34.776Z,26.22
2018-07-04T13:23:14.410Z,26.28
2018-07-04T13:25:54.216Z,26.28
2018-07-04T13:28:34.008Z,26.28
2018-07-04T13:31:13.598Z,26.27
2018-07-04T13:33:53.345Z,26.24
2018-07-04T13:36:33.064Z,26.24
2018-07-04T13:39:12.769Z,26.22
2018-07-04T13:41:52.546Z,26.20
2018-07-04T13:44:32.280Z,26.18
2018-07-04T13:47:11.756Z,26.18
2018-07-04T13:49:51.487Z,26.19
2018-07-04T13:52:31.193Z,26.18
2018-07-04T13:55:10.825Z,26.18
2018-07-04T13:57:50.555Z,26.18
2018-07-04T14:00:30.231Z,26.20
2018-07-04T14:03:09.932Z,26.20
2018-07-04T14:05:49.682Z,26.22
2018-07-04T14:08:29.459Z,26.22
2018-07-04T14:11:09.246Z,26.22
2018-07-04T14:13:48.908Z,26.23
2018-07-04T14:16:28.613Z,26.27
2018-07-04T14:19:08.248Z,26.29
2018-07-04T14:21:47.864Z,26.29
2018-07-04T14:24:27.617Z,26.35
2018-07-04T14:27:07.341Z,26.39
2018-07-04T14:29:47.021Z,26.46
2018-07-04T14:32:26.720Z,26.48
2018-07-04T14:35:06.452Z,26.51
2018-07-04T14:37:46.090Z,26.54
2018-07-04T14:40:25.760Z,26.59
2018-07-04T14:43:05.459Z,26.64
2018-07-04T14:45:45.136Z,26.67
2018-07-04T14:48:24.789Z,26.69
2018-07-04T14:51:04.500Z,26.74
2018-07-04T14:53:44.218Z,26.75
2018-07-04T14:56:23.908Z,26.75
2018-07-04T14:59:03.537Z,26.77
2018-07-04T15:01:43.182Z,26.78
2018-07-04T15:04:22.904Z,26.80
2018-07-04T15:07:02.690Z,26.81
2018-07-04T15:09:42.385Z,26.78
2018-07-04T15:12:22.009Z,26.78
2018-07-04T15:15:01.671Z,26.71
2018-07-04T15:17:41.296Z,26.71
2018-07-04T15:20:20.896Z,26.68
2018-07-04T15:23:00.524Z,26.68
2018-07-04T15:25:40.157Z,26.68
2018-07-04T15:28:19.794Z,26.72
2018-07-04T15:30:59.428Z,26.74
2018-07-04T15:33:39.037Z,26.78
2018-07-04T15:36:18.656Z,26.85
2018-07-04T15:38:58.224Z,26.90
2018-07-04T15:41:37.888Z,26.92
2018-07-04T15:44:17.646Z,26.90
2018-07-04T15:46:57.345Z,26.96
2018-07-04T15:49:37.019Z,26.94
2018-07-04T15:52:16.690Z,26.85
2018-07-04T15:54:56.344Z,26.82
2018-07-04T15:57:36.191Z,26.74
2018-07-04T16:00:16.799Z,26.71
2018-07-04T16:02:56.363Z,26.67
2018-07-04T16:05:36.021Z,26.63
2018-07-04T16:08:15.868Z,26.63
2018-07-04T16:10:55.555Z,26.69
2018-07-04T16:13:35.236Z,26.68
2018-07-04T16:16:14.816Z,26.66
2018-07-04T16:18:54.504Z,26.62
2018-07-04T16:21:34.460Z,26.66
2018-07-04T16:24:14.017Z,26.69
2018-07-04T16:26:53.785Z,26.69
2018-07-04T16:29:33.493Z,26.67
2018-07-04T16:32:13.118Z,26.67
2018-07-04T16:34:52.775Z,26.66
2018-07-04T16:37:32.529Z,26.61
2018-07-04T16:40:12.082Z,26.60
2018-07-04T16:42:52.348Z,26.66
2018-07-04T16:45:31.862Z,26.68
2018-07-04T16:48:11.478Z,26.67
2018-07-04T16:50:51.243Z,26.73
2018-07-04T16:53:30.869Z,26.67
2018-07-04T16:56:10.583Z,26.69
2018-07-04T16:58:50.260Z,26.78
2018-07-04T17:01:29.996Z,26.78
2018-07-04T17:04:09.879Z,26.82
2018-07-04T17:06:49.629Z,26.81
2018-07-04T17:09:29.312Z,26.84
2018-07-04T17:12:09.024Z,26.89
2018-07-04T17:14:49.029Z,26.89
2018-07-04T17:17:28.933Z,26.89
2018-07-04T17:20:08.525Z,26.87
2018-07-04T17:22:48.349Z,26.89
2018-07-04T17:25:28.041Z,26.91
2018-07-04T17:28:07.729Z,26.90
2018-07-04T17:30:47.311Z,26.88
2018-07-04T17:33:27.588Z,26.91
2018-07-04T17:36:07.172Z,26.96
2018-07-04T17:38:46.773Z,26.94
2018-07-04T17:41:26.457Z,26.88
2018-07-04T17:44:06.101Z,26.84
2018-07-04T17:46:45.824Z,26.78
2018-07-04T17:49:25.422Z,26.73
2018-07-04T17:52:04.982Z,26.67
2018-07-04T17:54:44.701Z,26.60
2018-07-04T17:57:24.618Z,26.53
2018-07-04T18:00:04.056Z,26.49
2018-07-04T18:02:43.940Z,26.52
2018-07-04T18:05:23.441Z,26.65
2018-07-04T18:08:03.865Z,26.75
2018-07-04T18:10:43.496Z,26.78
2018-07-04T18:13:23.247Z,26.80
2018-07-04T18:16:02.925Z,26.79
2018-07-04T18:18:42.598Z,26.77
2018-07-04T18:21:25.412Z,26.68
2018-07-04T18:24:06.305Z,26.65
2018-07-04T18:26:45.973Z,26.72
2018-07-04T18:29:25.577Z,26.74
2018-07-04T18:32:06.098Z,26.66
2018-07-04T18:34:45.625Z,26.53
2018-07-04T18:37:25.670Z,26.45
2018-07-04T18:40:05.160Z,26.37
2018-07-04T18:42:44.791Z,26.40
2018-07-04T18:45:24.336Z,26.40
2018-07-04T18:48:04.079Z,26.41
2018-07-04T18:50:43.652Z,26.37
2018-07-04T18:53:23.405Z,26.35
2018-07-04T18:56:03.104Z,26.31
2018-07-04T18:58:42.874Z,26.24
2018-07-04T19:01:22.654Z,26.17
2018-07-04T19:04:02.431Z,26.08
2018-07-04T19:06:42.033Z,26.05
2018-07-04T19:09:21.792Z,26.04
2018-07-04T19:12:01.502Z,26.02
2018-07-04T19:14:41.231Z,25.97
2018-07-04T19:17:21.032Z,25.94
2018-07-04T19:20:00.713Z,25.93
2018-07-04T19:22:40.336Z,25.90
2018-07-04T19:25:20.034Z,25.85
2018-07-04T19:27:59.753Z,25.83
2018-07-04T19:30:39.400Z,25.78
2018-07-04T19:33:19.146Z,25.73
2018-07-04T19:35:58.783Z,25.68
2018-07-04T19:38:38.315Z,25.61
2018-07-04T19:41:17.958Z,25.57
2018-07-04T19:43:57.714Z,25.52
2018-07-04T19:46:38.275Z,25.48
2018-07-04T19:49:17.734Z,25.42
2018-07-04T19:51:57.658Z,25.40
2018-07-04T19:54:37.332Z,25.37
2018-07-04T19:57:16.886Z,25.32
2018-07-04T19:59:56.456Z,25.29
2018-07-04T20:02:36.181Z,25.25
2018-07-04T20:05:15.824Z,25.17
2018-07-04T20:07:55.373Z,25.13
2018-07-04T20:10:35.141Z,25.09
2018-07-04T20:13:14.880Z,24.98
2018-07-04T20:15:54.675Z,24.90
2018-07-04T20:18:34.428Z,24.83
2018-07-04T20:21:14.004Z,24.75
2018-07-04T20:23:53.789Z,24.72
2018-07-04T20:26:33.469Z,24.63
2018-07-04T20:29:13.158Z,24.61
2018-07-04T20:31:52.782Z,24.58
2018-07-04T20:34:32.518Z,24.56
2018-07-04T20:37:12.277Z,24.52
2018-07-04T20:39:52.086Z,24.49
2018-07-04T20:42:31.764Z,24.46
2018-07-04T20:45:11.336Z,24.43
2018-07-04T20:47:51.087Z,24.42
2018-07-04T20:50:30.691Z,24.38
2018-07-04T20:53:10.460Z,24.34
2018-07-04T20:55:50.358Z,24.24
2018-07-04T20:58:29.876Z,24.13
2018-07-04T21:01:09.442Z,24.08
2018-07-04T21:03:49.151Z,23.98
2018-07-04T21:06:28.904Z,23.91
2018-07-04T21:09:08.580Z,23.92
2018-07-04T21:11:48.157Z,23.93
2018-07-04T21:14:27.957Z,23.93
2018-07-04T21:17:07.554Z,23.90
2018-07-04T21:19:47.248Z,23.82
2018-07-04T21:22:26.844Z,23.78
2018-07-04T21:25:06.344Z,23.77
2018-07-04T21:27:45.885Z,23.68
2018-07-04T21:30:25.634Z,23.61
2018-07-04T21:33:05.470Z,23.55
2018-07-04T21:35:44.920Z,23.44
2018-07-04T21:38:24.664Z,23.38
2018-07-04T21:41:04.298Z,23.34
2018-07-04T21:43:43.801Z,23.33
2018-07-04T21:46:23.465Z,23.38
2018-07-04T21:49:03.175Z,23.44
2018-07-04T21:51:42.811Z,23.43
2018-07-04T21:54:22.500Z,23.43
2018-07-04T21:57:02.286Z,23.39
2018-07-04T21:59:42.192Z,23.41
2018-07-04T22:02:21.947Z,23.36
2018-07-04T22:05:01.473Z,23.35
2018-07-04T22:07:40.979Z,23.30
2018-07-04T22:10:20.684Z,23.31
2018-07-04T22:13:00.385Z,23.28
2018-07-04T22:15:40.125Z,23.21
2018-07-04T22:18:19.768Z,23.14
2018-07-04T22:20:59.637Z,23.11
2018-07-04T22:23:39.352Z,23.11
2018-07-04T22:26:19.041Z,23.07
2018-07-04T22:28:58.591Z,23.02
2018-07-04T22:31:38.157Z,22.98
2018-07-04T22:34:17.796Z,22.94
2018-07-04T22:36:57.425Z,22.94
2018-07-04T22:39:36.974Z,22.91
2018-07-04T22:42:16.697Z,22.87
2018-07-04T22:44:56.342Z,22.84
2018-07-04T22:47:35.952Z,22.79
2018-07-04T22:50:15.628Z,22.70
2018-07-04T22:52:55.203Z,22.68
2018-07-04T22:55:34.861Z,22.65
2018-07-04T22:58:15.422Z,22.65
2018-07-04T23:00:54.908Z,22.67
2018-07-04T23:03:35.342Z,22.62
2018-07-04T23:06:14.884Z,22.57
2018-07-04T23:08:54.351Z,22.46
2018-07-04T23:11:33.902Z,22.40
2018-07-04T23:14:13.486Z,22.24
2018-07-04T23:16:53.010Z,22.24
2018-07-04T23:19:32.620Z,22.23
2018-07-04T23:22:12.276Z,22.13
2018-07-04T23:24:52.041Z,22.14
2018-07-04T23:27:31.685Z,22.15
2018-07-04T23:30:11.392Z,22.06
2018-07-04T23:32:51.013Z,22.08
2018-07-04T23:35:30.749Z,22.20
2018-07-04T23:38:10.393Z,22.25
2018-07-04T23:40:50.145Z,22.29
2018-07-04T23:43:29.848Z,22.26
2018-07-04T23:46:09.401Z,22.20
2018-07-04T23:48:49.082Z,22.22
2018-07-04T23:51:28.929Z,22.21
2018-07-04T23:54:08.588Z,22.23
2018-07-04T23:56:48.205Z,22.20
2018-07-04T23:59:27.947Z,22.21
